Warrenton, NC (27589)

6:23 AM EST on December 04, 2016 (GMT -0500)
Cokesbury/Axtell | | Change Station

Elev 415 ft 36.36 °N, 78.29 °W | Updated 8 minutes ago

Clear
Clear
39.3 °F
Feels Like 39 °F
N
0.0
Wind Variable Wind from NNW
Gusts 1.0 mph

Today
High -- | Low -- °F
--% Chance of Precip.
Yesterday
High -- | Low -- °F
Precip. -- in
Pressure 30.28 in
Visibility 10.0 miles
Clouds Clear
Windchill 39 °F
Dew Point 33 °F
Humidity 78%
Rainfall 0.00 in
Snow Depth Not available.
7:08 AM 4:57 PM
Waxing Crescent, 22% visible
METAR KHNZ 041105Z AUTO 03005KT 10SM CLR 02/M02 A3028 RMK AO2 T00221023
Pressure 30.28 in
Visibility 10.0 miles
Clouds Clear
Windchill 39 °F
Dew Point 33 °F
Humidity 78%
Rainfall 0.00 in
Snow Depth Not available.
7:08 AM 4:57 PM
Waxing Crescent, 22% visible
METAR KHNZ 041105Z AUTO 03005KT 10SM CLR 02/M02 A3028 RMK AO2 T00221023

10-Day Weather Forecast

Almanac

Astronomy

Dec. 04, 2016 Rise Set
Actual Time
Civil Twilight
Nautical Twilight
Astronomical Twilight
Moon
Length of Visible Light
Length of Day
Tomorrow will be .
, % of the Moon is Illuminated

Today's Extremes

State Highs State Lows

Community

WunderPhotos

Upload Photos

1,955,593 photos uploaded!

WunderBlog® & News

Nearby

Air Quality

  Air Quality AQ Index Pollutant
Not available.

Snow Depth

Station Depth Elevation

Earthquake Activity

City Distance Mag. Time & Date
Minimum magnitude displayed is 2.5.

Coastal Water Temperatures

Place Temperature

Stations

Nearby Weather Stations

Station Location Temp. Windchill Dew Point Humidity Wind Precip. Elev Updated Type
                   

Watches & Warnings

There are currently no watches in effect.